»·PEaware :: N130LM KGEG-KSEA

N130LM :: KGEG-KSEA

FLIGHT INFORMATION

Flight Status: Arrived
Operator: Privately registered:
United States
More flights under this callsign
Pilot: Justin M. (19723)
Aircraft: DASSAULT AVIATION FALCON 50
(FA50)
More flights by this aircraft type
Origin: KGEG Spokane Intl
United States
Destination: KSEA Seattle-Tacoma Intl
United States
More flights between these airports :: More routes between these airports
Route: GEG6 TEMPL GLASR1
File this flight plan on PilotEdge
Remarks:
Altitude:
(Current/Filed)
30,000ft
Speed:
(Current/Filed)
450kts
Departed: 04-Nov-21 07:31 AM
Arrived: 04-Nov-21 08:10 AM
Distance/Time
Traveled:
194nm/0:39
Distance/Time
To Go:
Arrived

Flight Plot

Page will automatically refresh every two minutes.

Flight plan parsing failed; only flown route is shown


Map Options




Map Legend


Flown Route
Filed Route
Departure Airport
Arrival Airport
Navaid (VOR, NDB)
Fix

Horizontal Profiles

Position Reports

Time Latitude Longitude Heading Altitude Ground
Speed
04-Nov-21 07:17 47.614816 -117.533362 360 2390ft 0kts
04-Nov-21 07:18 47.614816 -117.533362 360 2390ft 0kts
04-Nov-21 07:19 47.614816 -117.533362 360 2390ft 0kts
04-Nov-21 07:20 47.614816 -117.533362 360 2390ft 0kts
04-Nov-21 07:21 47.614816 -117.533362 360 2390ft 0kts
04-Nov-21 07:22 47.614816 -117.533362 360 2390ft 0kts
04-Nov-21 07:23 47.614816 -117.533362 360 2390ft 0kts
04-Nov-21 07:24 47.614816 -117.533362 360 2390ft 0kts
04-Nov-21 07:25 47.614816 -117.533362 360 2390ft 0kts
04-Nov-21 07:26 47.614816 -117.533362 360 2390ft 0kts
04-Nov-21 07:27 47.614816 -117.533362 360 2390ft 0kts
04-Nov-21 07:28 47.615228 -117.527728 90 2390ft 28kts
04-Nov-21 07:29 47.616197 -117.520238 357 2390ft 24kts
04-Nov-21 07:30 47.617099 -117.547235 271 2803ft 179kts
04-Nov-21 07:31 47.585912 -117.622305 224 6865ft 268kts
04-Nov-21 07:32 47.566667 -117.733946 270 11936ft 335kts
04-Nov-21 07:33 47.581504 -117.870783 270 17047ft 346kts
04-Nov-21 07:34 47.595756 -118.014910 271 20757ft 367kts
04-Nov-21 07:35 47.610683 -118.168398 271 23740ft 385kts
04-Nov-21 07:36 47.626030 -118.328575 271 26241ft 400kts
04-Nov-21 07:37 47.641570 -118.493053 271 28758ft 401kts
04-Nov-21 07:38 47.656878 -118.659333 270 29869ft 427kts
04-Nov-21 07:39 47.673499 -118.842280 271 29866ft 460kts
04-Nov-21 07:40 47.690656 -119.032612 271 29818ft 469kts
04-Nov-21 07:41 47.707583 -119.224782 271 29809ft 471kts
04-Nov-21 07:42 47.724220 -119.418110 270 29809ft 474kts
04-Nov-21 07:43 47.740226 -119.613420 270 29808ft 477kts
04-Nov-21 07:44 47.755720 -119.811771 269 29812ft 479kts
04-Nov-21 07:45 47.770888 -120.009713 269 29811ft 480kts
04-Nov-21 07:46 47.785685 -120.207294 269 29818ft 479kts
04-Nov-21 07:47 47.800032 -120.403243 269 29794ft 477kts
04-Nov-21 07:48 47.813948 -120.598210 269 28817ft 469kts
04-Nov-21 07:49 47.827260 -120.789846 268 27844ft 461kts
04-Nov-21 07:50 47.838629 -120.956565 268 26991ft 458kts
04-Nov-21 07:51 47.851165 -121.145387 268 25685ft 459kts
04-Nov-21 07:52 47.863324 -121.330811 267 20339ft 428kts
04-Nov-21 07:53 47.874246 -121.503589 267 16474ft 402kts
04-Nov-21 07:54 47.883480 -121.659452 262 12657ft 346kts
04-Nov-21 07:55 47.843114 -121.763404 219 12051ft 273kts
04-Nov-21 07:56 47.789145 -121.835969 218 10207ft 249kts
04-Nov-21 07:57 47.765794 -121.931195 255 8239ft 261kts
04-Nov-21 07:58 47.757488 -122.029161 255 6411ft 258kts
04-Nov-21 07:59 47.748428 -122.134476 256 6013ft 253kts
04-Nov-21 08:00 47.739182 -122.237787 256 5236ft 231kts
04-Nov-21 08:01 47.711241 -122.302797 204 4621ft 177kts
04-Nov-21 08:02 47.660623 -122.315816 181 4046ft 187kts
04-Nov-21 08:03 47.618742 -122.316562 179 3502ft 125kts
04-Nov-21 08:04 47.582968 -122.316861 178 2822ft 131kts
04-Nov-21 08:05 47.546206 -122.317175 178 2094ft 133kts
04-Nov-21 08:06 47.508795 -122.317487 179 1355ft 137kts
04-Nov-21 08:07 47.472246 -122.317811 177 639ft 112kts
04-Nov-21 08:08 47.447140 -122.317861 168 434ft 49kts
04-Nov-21 08:09 47.442737 -122.314470 123 433ft 24kts

Navigation Log

Ident Type
Flight plan parsing failed, navigation log unavailable